| time (UTC) | temp F | wind direction | speed knots | gust knots | rain 1hr in | rain 24hr in | rain mn in | humidity % | barometer mb |
| 20260507214604 | 40 | 0 | 0.0 | 0.0 | 0.00 | 0.00 | 0.00 | 59 | 1020.0 |
| 20260507213604 | 41 | 0 | 0.0 | 0.0 | 0.00 | 0.00 | 0.00 | 58 | 1019.9 |
| 20260507213103 | 41 | 0 | 0.0 | 0.0 | 0.00 | 0.00 | 0.00 | 57 | 1019.9 |
| 20260507211605 | 41 | 0 | 0.0 | 0.0 | 0.00 | 0.00 | 0.00 | 56 | 1019.7 |
| 20260507211104 | 41 | 0 | 0.0 | 0.9 | 0.00 | 0.00 | 0.00 | 56 | 1019.7 |
| 20260507210604 | 41 | 0 | 0.0 | 0.9 | 0.00 | 0.00 | 0.00 | 56 | 1019.6 |
| 20260507204604 | 44 | 0 | 0.0 | 1.7 | 0.00 | 0.00 | 0.00 | 51 | 1019.5 |
| 20260507204104 | 44 | 0 | 0.0 | 1.7 | 0.00 | 0.00 | 0.00 | 50 | 1019.5 |
| 20260507203604 | 44 | 349 | 0.9 | 1.7 | 0.00 | 0.00 | 0.00 | 50 | 1019.4 |
| 20260507203104 | 45 | 0 | 0.0 | 1.7 | 0.00 | 0.00 | 0.00 | 49 | 1019.4 |
| 20260507200604 | 47 | 0 | 0.0 | 1.7 | 0.00 | 0.00 | 0.00 | 46 | 1019.1 |
| 20260507194604 | 48 | 5 | 0.0 | 1.7 | 0.00 | 0.00 | 0.00 | 44 | 1019.0 |
| 20260507193104 | 50 | 333 | 0.9 | 1.7 | 0.00 | 0.00 | 0.00 | 40 | 1018.8 |
| 20260507191603 | 51 | 300 | 0.9 | 1.7 | 0.00 | 0.00 | 0.00 | 37 | 1018.7 |
| 20260507191104 | 52 | 307 | 0.0 | 1.7 | 0.00 | 0.00 | 0.00 | 36 | 1018.7 |
| 20260507190115 | 52 | 299 | 0.9 | 2.6 | 0.00 | 0.00 | 0.00 | 36 | 1018.5 |
| 20260507183604 | 54 | 338 | 0.9 | 4.3 | 0.00 | 0.00 | 0.00 | 32 | 1018.2 |
| 20260507183104 | 55 | 319 | 0.9 | 7.8 | 0.00 | 0.00 | 0.00 | 32 | 1018.1 |
| 20260507181604 | 55 | 315 | 4.3 | 7.8 | 0.00 | 0.00 | 0.00 | 30 | 1018.0 |
| 20260507180115 | 56 | 297 | 2.6 | 8.7 | 0.00 | 0.00 | 0.00 | 29 | 1017.9 |
| 20260507174104 | 57 | 289 | 2.6 | 10.4 | 0.00 | 0.00 | 0.00 | 29 | 1017.7 |
| 20260507173104 | 57 | 231 | 5.2 | 7.8 | 0.00 | 0.00 | 0.00 | 29 | 1017.6 |
| 20260507171104 | 57 | 334 | 6.1 | 10.4 | 0.00 | 0.00 | 0.00 | 29 | 1017.5 |
| 20260507170604 | 58 | 299 | 2.6 | 7.8 | 0.00 | 0.00 | 0.00 | 30 | 1017.5 |
| 20260507164604 | 59 | 276 | 2.6 | 4.3 | 0.00 | 0.00 | 0.00 | 29 | 1017.3 |
| 20260507164104 | 58 | 345 | 0.9 | 10.4 | 0.00 | 0.00 | 0.00 | 31 | 1017.2 |
| 20260507163604 | 58 | 278 | 6.1 | 10.4 | 0.00 | 0.00 | 0.00 | 30 | 1017.3 |
| 20260507163104 | 59 | 275 | 7.0 | 8.7 | 0.00 | 0.00 | 0.00 | 31 | 1017.3 |
| 20260507160115 | 59 | 306 | 7.8 | 10.4 | 0.00 | 0.00 | 0.00 | 31 | 1017.1 |
| 20260507154104 | 59 | 297 | 4.3 | 8.7 | 0.00 | 0.00 | 0.00 | 30 | 1017.0 |
| 20260507153604 | 59 | 278 | 4.3 | 8.7 | 0.00 | 0.00 | 0.00 | 29 | 1016.9 |
| 20260507153103 | 59 | 300 | 6.1 | 11.3 | 0.00 | 0.00 | 0.00 | 29 | 1016.8 |
| 20260507151104 | 60 | 331 | 2.6 | 10.4 | 0.00 | 0.00 | 0.00 | 29 | 1016.8 |
| 20260507144103 | 60 | 284 | 7.0 | 8.7 | 0.00 | 0.00 | 0.00 | 30 | 1016.8 |
| 20260507143604 | 60 | 242 | 4.3 | 8.7 | 0.00 | 0.00 | 0.00 | 30 | 1016.9 |
| 20260507143103 | 60 | 228 | 6.1 | 10.4 | 0.00 | 0.00 | 0.00 | 31 | 1016.9 |
| 20260507133604 | 60 | 0 | 1.7 | 7.0 | 0.00 | 0.00 | 0.00 | 34 | 1016.7 |
| 20260507131603 | 61 | 5 | 0.9 | 10.4 | 0.00 | 0.00 | 0.00 | 33 | 1016.6 |
| 20260507124604 | 58 | 53 | 1.7 | 7.0 | 0.00 | 0.00 | 0.00 | 36 | 1016.5 |
| 20260507124105 | 59 | 332 | 2.6 | 7.0 | 0.00 | 0.00 | 0.00 | 36 | 1016.6 |
| 20260507123104 | 59 | 79 | 0.9 | 7.8 | 0.00 | 0.00 | 0.00 | 37 | 1016.5 |
| 20260507121103 | 59 | 190 | 5.2 | 11.3 | 0.00 | 0.00 | 0.00 | 39 | 1016.3 |
| 20260507120604 | 58 | 117 | 0.9 | 10.4 | 0.00 | 0.00 | 0.00 | 39 | 1016.3 |
| 20260507120115 | 57 | 313 | 8.7 | 10.4 | 0.00 | 0.00 | 0.00 | 39 | 1016.4 |
| 20260507114604 | 57 | 298 | 6.1 | 7.8 | 0.00 | 0.00 | 0.00 | 40 | 1016.4 |
| 20260507113604 | 57 | 296 | 1.7 | 11.3 | 0.00 | 0.00 | 0.00 | 39 | 1016.5 |
| 20260507111604 | 57 | 288 | 1.7 | 5.2 | 0.00 | 0.00 | 0.00 | 39 | 1016.7 |
| 20260507104604 | 56 | 274 | 5.2 | 7.0 | 0.00 | 0.00 | 0.00 | 39 | 1016.4 |
| 20260507103604 | 57 | 239 | 4.3 | 5.2 | 0.00 | 0.00 | 0.00 | 38 | 1016.4 |
| 20260507100604 | 57 | 273 | 4.3 | 10.4 | 0.00 | 0.00 | 0.00 | 40 | 1016.2 |
| 20260507100115 | 57 | 325 | 1.7 | 10.4 | 0.00 | 0.00 | 0.00 | 40 | 1016.2 |
| 20260507094103 | 56 | 0 | 0.0 | 7.8 | 0.00 | 0.00 | 0.00 | 43 | 1015.9 |
| 20260507093604 | 56 | 178 | 1.7 | 7.8 | 0.00 | 0.00 | 0.00 | 44 | 1015.9 |
| 20260507093103 | 56 | 338 | 4.3 | 7.8 | 0.00 | 0.00 | 0.00 | 44 | 1016.0 |
| 20260507091605 | 55 | 279 | 2.6 | 4.3 | 0.00 | 0.00 | 0.00 | 41 | 1016.0 |
| 20260507084604 | 54 | 261 | 2.6 | 8.7 | 0.00 | 0.00 | 0.00 | 48 | 1015.9 |
| 20260507084104 | 54 | 279 | 2.6 | 8.7 | 0.00 | 0.00 | 0.00 | 47 | 1016.1 |
| 20260507083603 | 53 | 173 | 1.7 | 10.4 | 0.00 | 0.00 | 0.00 | 49 | 1015.9 |
| 20260507083103 | 53 | 217 | 4.3 | 10.4 | 0.00 | 0.00 | 0.00 | 48 | 1015.9 |
| 20260507081104 | 52 | 236 | 2.6 | 5.2 | 0.00 | 0.00 | 0.00 | 53 | 1015.7 |
| 20260507080605 | 52 | 207 | 0.9 | 4.3 | 0.00 | 0.00 | 0.00 | 53 | 1015.6 |
| 20260507080115 | 52 | 327 | 2.6 | 7.0 | 0.00 | 0.00 | 0.00 | 54 | 1015.6 |
| 20260507074604 | 51 | 36 | 1.7 | 7.0 | 0.00 | 0.00 | 0.00 | 56 | 1015.6 |
| 20260507074104 | 51 | 10 | 2.6 | 6.1 | 0.00 | 0.00 | 0.00 | 55 | 1015.4 |
| 20260507073604 | 51 | 309 | 0.9 | 7.0 | 0.00 | 0.00 | 0.00 | 60 | 1015.4 |
| 20260507073104 | 50 | 286 | 0.9 | 7.0 | 0.00 | 0.00 | 0.00 | 58 | 1015.5 |
| 20260507071104 | 49 | 268 | 1.7 | 4.3 | 0.00 | 0.00 | 0.00 | 63 | 1015.3 |
| 20260507064604 | 48 | 273 | 2.6 | 2.6 | 0.00 | 0.00 | 0.00 | 66 | 1015.4 |
| 20260507064104 | 48 | 208 | 1.7 | 2.6 | 0.00 | 0.00 | 0.00 | 67 | 1015.4 |
| 20260507063104 | 46 | 155 | 1.7 | 1.7 | 0.00 | 0.00 | 0.00 | 69 | 1015.3 |
| 20260507061104 | 44 | 147 | 0.9 | 1.7 | 0.00 | 0.00 | 0.00 | 72 | 1015.2 |
| 20260507054604 | 41 | 0 | 0.0 | 1.7 | 0.00 | 0.00 | 0.00 | 78 | 1015.2 |
| 20260507051104 | 39 | 0 | 0.0 | 0.0 | 0.00 | 0.00 | 0.00 | 86 | 1014.9 |
| 20260507050604 | 38 | 0 | 0.0 | 0.0 | 0.00 | 0.00 | 0.00 | 86 | 1014.9 |
| 20260507050115 | 37 | 0 | 0.0 | 0.0 | 0.00 | 0.00 | 0.00 | 87 | 1014.8 |
| 20260507044604 | 36 | 0 | 0.0 | 0.0 | 0.00 | 0.00 | 0.00 | 91 | 1014.6 |
| 20260507041104 | 31 | 0 | 0.0 | 0.9 | 0.00 | 0.00 | 0.00 | 89 | 1014.5 |
| 20260507040114 | 31 | 0 | 0.0 | 1.7 | 0.00 | 0.00 | 0.00 | 88 | 1014.4 |
| 20260507034605 | 31 | 352 | 0.9 | 0.9 | 0.00 | 0.00 | 0.00 | 87 | 1014.4 |
| 20260507034104 | 31 | 0 | 0.0 | 0.0 | 0.00 | 0.00 | 0.00 | 87 | 1014.3 |
| 20260507033103 | 31 | 0 | 0.0 | 1.7 | 0.00 | 0.00 | 0.00 | 85 | 1014.4 |
| 20260507031104 | 32 | 0 | 0.0 | 0.0 | 0.00 | 0.00 | 0.00 | 87 | 1014.4 |
| 20260507030115 | 32 | 0 | 0.0 | 0.9 | 0.00 | 0.00 | 0.00 | 89 | 1014.3 |
| 20260507024604 | 31 | 0 | 0.0 | 1.7 | 0.00 | 0.00 | 0.00 | 88 | 1014.1 |
| 20260507023604 | 31 | 352 | 0.9 | 0.9 | 0.00 | 0.00 | 0.00 | 87 | 1014.0 |
| 20260507023104 | 31 | 351 | 0.9 | 1.7 | 0.00 | 0.00 | 0.00 | 86 | 1014.0 |
| 20260507020604 | 31 | 352 | 0.9 | 1.7 | 0.00 | 0.00 | 0.00 | 85 | 1013.9 |
| 20260507020115 | 32 | 0 | 0.0 | 1.7 | 0.00 | 0.00 | 0.00 | 85 | 1014.0 |
| 20260507014105 | 32 | 351 | 0.0 | 1.7 | 0.00 | 0.00 | 0.00 | 85 | 1013.9 |
| 20260507013104 | 33 | 0 | 0.0 | 0.9 | 0.00 | 0.00 | 0.00 | 85 | 1013.9 |
| 20260507011604 | 32 | 351 | 0.9 | 0.9 | 0.00 | 0.00 | 0.00 | 85 | 1013.8 |
| 20260507010604 | 33 | 351 | 0.0 | 0.9 | 0.00 | 0.00 | 0.00 | 85 | 1013.7 |
| 20260507001103 | 35 | 0 | 0.0 | 1.7 | 0.00 | 0.00 | 0.00 | 79 | 1013.3 |
| 20260507000602 | 35 | 290 | 0.0 | 1.7 | 0.00 | 0.00 | 0.00 | 79 | 1013.3 |
| 20260506234102 | 37 | 0 | 0.0 | 1.7 | 0.00 | 0.00 | 0.00 | 73 | 1013.3 |
| 20260506233604 | 37 | 0 | 0.0 | 1.7 | 0.00 | 0.00 | 0.00 | 72 | 1013.1 |
| 20260506233104 | 38 | 0 | 0.0 | 1.7 | 0.00 | 0.00 | 0.00 | 71 | 1013.2 |
| 20260506231603 | 39 | 0 | 0.0 | 1.7 | 0.00 | 0.00 | 0.00 | 69 | 1013.1 |
| 20260506231103 | 39 | 0 | 0.0 | 1.7 | 0.00 | 0.00 | 0.00 | 69 | 1013.0 |
| 20260506230114 | 40 | 0 | 0.0 | 1.7 | 0.00 | 0.00 | 0.00 | 70 | 1012.9 |
| 20260506224604 | 41 | 280 | 0.9 | 1.7 | 0.00 | 0.00 | 0.00 | 66 | 1012.9 |
| 20260506224103 | 41 | 311 | 0.0 | 0.9 | 0.00 | 0.00 | 0.00 | 67 | 1012.9 |
| 20260506223603 | 41 | 311 | 0.0 | 1.7 | 0.00 | 0.00 | 0.00 | 66 | 1012.9 |
| 20260506223104 | 41 | 0 | 0.0 | 1.7 | 0.00 | 0.00 | 0.00 | 65 | 1012.9 |